sensor_id;sensor_type;location;lat;lon;timestamp;temperature;humidity
70089;HTU21D;57460;47.134;19.888;2023-03-01T00:01:46;6.75;63.31
70089;HTU21D;57460;47.134;19.888;2023-03-01T00:04:12;6.69;63.63
70089;HTU21D;57460;47.134;19.888;2023-03-01T00:06:42;6.68;63.79
70089;HTU21D;57460;47.134;19.888;2023-03-01T00:09:12;6.72;63.26
70089;HTU21D;57460;47.134;19.888;2023-03-01T00:11:44;6.71;63.21
70089;HTU21D;57460;47.134;19.888;2023-03-01T00:14:10;6.66;63.50
70089;HTU21D;57460;47.134;19.888;2023-03-01T00:16:39;6.59;63.90
70089;HTU21D;57460;47.134;19.888;2023-03-01T00:19:13;6.61;63.39
70089;HTU21D;57460;47.134;19.888;2023-03-01T00:21:43;6.64;63.12
70089;HTU21D;57460;47.134;19.888;2023-03-01T00:26:47;6.54;63.47
70089;HTU21D;57460;47.134;19.888;2023-03-01T00:29:13;6.55;63.44
70089;HTU21D;57460;47.134;19.888;2023-03-01T00:31:39;6.63;63.21
70089;HTU21D;57460;47.134;19.888;2023-03-01T00:34:05;6.60;63.18
70089;HTU21D;57460;47.134;19.888;2023-03-01T00:36:35;6.54;63.50
70089;HTU21D;57460;47.134;19.888;2023-03-01T00:39:03;6.56;63.30
70089;HTU21D;57460;47.134;19.888;2023-03-01T00:41:30;6.56;63.35
70089;HTU21D;57460;47.134;19.888;2023-03-01T00:43:56;6.55;63.34
70089;HTU21D;57460;47.134;19.888;2023-03-01T00:46:24;6.49;63.55
70089;HTU21D;57460;47.134;19.888;2023-03-01T00:48:51;6.36;64.18
70089;HTU21D;57460;47.134;19.888;2023-03-01T00:51:21;6.27;64.50
70089;HTU21D;57460;47.134;19.888;2023-03-01T00:53:50;6.25;64.73
70089;HTU21D;57460;47.134;19.888;2023-03-01T00:56:16;6.30;64.43
70089;HTU21D;57460;47.134;19.888;2023-03-01T00:58:42;6.31;64.37
70089;HTU21D;57460;47.134;19.888;2023-03-01T01:01:20;6.34;64.19
70089;HTU21D;57460;47.134;19.888;2023-03-01T01:03:52;6.35;64.12
70089;HTU21D;57460;47.134;19.888;2023-03-01T01:06:28;6.41;63.73
70089;HTU21D;57460;47.134;19.888;2023-03-01T01:08:55;6.40;63.76
70089;HTU21D;57460;47.134;19.888;2023-03-01T01:11:24;6.40;63.73
70089;HTU21D;57460;47.134;19.888;2023-03-01T01:13:51;6.38;63.85
70089;HTU21D;57460;47.134;19.888;2023-03-01T01:16:19;6.35;63.61
70089;HTU21D;57460;47.134;19.888;2023-03-01T01:18:45;6.36;63.67
70089;HTU21D;57460;47.134;19.888;2023-03-01T01:21:16;6.35;63.69
70089;HTU21D;57460;47.134;19.888;2023-03-01T01:23:43;6.29;64.43
70089;HTU21D;57460;47.134;19.888;2023-03-01T01:26:13;6.25;64.11
70089;HTU21D;57460;47.134;19.888;2023-03-01T01:28:39;6.27;64.00
70089;HTU21D;57460;47.134;19.888;2023-03-01T01:31:06;6.31;63.87
70089;HTU21D;57460;47.134;19.888;2023-03-01T01:33:33;6.29;63.96
70089;HTU21D;57460;47.134;19.888;2023-03-01T01:35:59;6.26;64.14
70089;HTU21D;57460;47.134;19.888;2023-03-01T01:38:25;6.26;64.18
70089;HTU21D;57460;47.134;19.888;2023-03-01T01:40:51;6.30;63.83
70089;HTU21D;57460;47.134;19.888;2023-03-01T01:43:29;6.20;64.51
70089;HTU21D;57460;47.134;19.888;2023-03-01T01:46:31;6.36;63.59
70089;HTU21D;57460;47.134;19.888;2023-03-01T01:49:05;6.23;64.09
70089;HTU21D;57460;47.134;19.888;2023-03-01T01:51:38;6.24;63.98
70089;HTU21D;57460;47.134;19.888;2023-03-01T01:54:16;6.28;63.88
70089;HTU21D;57460;47.134;19.888;2023-03-01T01:56:56;6.17;65.17
70089;HTU21D;57460;47.134;19.888;2023-03-01T01:59:25;6.19;64.91
70089;HTU21D;57460;47.134;19.888;2023-03-01T02:01:53;6.12;65.02
70089;HTU21D;57460;47.134;19.888;2023-03-01T02:04:20;6.10;65.38
70089;HTU21D;57460;47.134;19.888;2023-03-01T02:06:58;6.10;65.51
70089;HTU21D;57460;47.134;19.888;2023-03-01T02:09:25;6.11;65.57
70089;HTU21D;57460;47.134;19.888;2023-03-01T02:11:52;6.11;64.88
70089;HTU21D;57460;47.134;19.888;2023-03-01T02:14:18;6.10;65.85
70089;HTU21D;57460;47.134;19.888;2023-03-01T02:16:45;6.05;65.63
70089;HTU21D;57460;47.134;19.888;2023-03-01T02:22:24;5.95;65.83
70089;HTU21D;57460;47.134;19.888;2023-03-01T02:30:14;5.75;66.77
70089;HTU21D;57460;47.134;19.888;2023-03-01T02:32:41;5.75;66.46
70089;HTU21D;57460;47.134;19.888;2023-03-01T02:35:14;5.81;66.29
70089;HTU21D;57460;47.134;19.888;2023-03-01T02:37:43;5.80;67.03
70089;HTU21D;57460;47.134;19.888;2023-03-01T02:40:15;5.86;65.77
70089;HTU21D;57460;47.134;19.888;2023-03-01T02:42:51;5.85;66.88
70089;HTU21D;57460;47.134;19.888;2023-03-01T02:45:17;5.90;66.44
70089;HTU21D;57460;47.134;19.888;2023-03-01T02:47:43;5.98;65.64
70089;HTU21D;57460;47.134;19.888;2023-03-01T02:55:27;5.97;65.55
70089;HTU21D;57460;47.134;19.888;2023-03-01T02:57:55;5.89;66.84
70089;HTU21D;57460;47.134;19.888;2023-03-01T03:00:27;5.87;66.17
70089;HTU21D;57460;47.134;19.888;2023-03-01T03:02:54;5.89;66.37
70089;HTU21D;57460;47.134;19.888;2023-03-01T03:05:30;5.94;66.31
70089;HTU21D;57460;47.134;19.888;2023-03-01T03:07:59;5.93;65.85
70089;HTU21D;57460;47.134;19.888;2023-03-01T03:10:34;5.89;66.01
70089;HTU21D;57460;47.134;19.888;2023-03-01T03:13:14;5.85;67.11
70089;HTU21D;57460;47.134;19.888;2023-03-01T03:15:41;5.84;66.24
70089;HTU21D;57460;47.134;19.888;2023-03-01T03:18:11;5.84;66.50
70089;HTU21D;57460;47.134;19.888;2023-03-01T03:20:38;5.86;66.80
70089;HTU21D;57460;47.134;19.888;2023-03-01T03:23:05;5.89;66.75
70089;HTU21D;57460;47.134;19.888;2023-03-01T03:25:31;5.91;65.85
70089;HTU21D;57460;47.134;19.888;2023-03-01T03:27:57;5.93;66.45
70089;HTU21D;57460;47.134;19.888;2023-03-01T03:30:31;5.97;65.88
70089;HTU21D;57460;47.134;19.888;2023-03-01T03:32:58;6.01;66.00
70089;HTU21D;57460;47.134;19.888;2023-03-01T03:35:30;5.99;66.62
70089;HTU21D;57460;47.134;19.888;2023-03-01T03:37:58;5.97;66.39
70089;HTU21D;57460;47.134;19.888;2023-03-01T03:40:33;5.97;66.50
70089;HTU21D;57460;47.134;19.888;2023-03-01T03:42:59;5.92;66.78
70089;HTU21D;57460;47.134;19.888;2023-03-01T03:45:25;5.93;66.73
70089;HTU21D;57460;47.134;19.888;2023-03-01T03:47:50;5.91;67.39
70089;HTU21D;57460;47.134;19.888;2023-03-01T03:50:18;5.82;67.21
70089;HTU21D;57460;47.134;19.888;2023-03-01T03:52:44;5.79;67.68
70089;HTU21D;57460;47.134;19.888;2023-03-01T03:55:11;5.74;68.03
70089;HTU21D;57460;47.134;19.888;2023-03-01T03:57:39;5.79;66.29
70089;HTU21D;57460;47.134;19.888;2023-03-01T04:00:07;5.90;65.11
70089;HTU21D;57460;47.134;19.888;2023-03-01T04:02:42;5.90;65.04
70089;HTU21D;57460;47.134;19.888;2023-03-01T04:05:11;5.87;65.37
70089;HTU21D;57460;47.134;19.888;2023-03-01T04:07:38;5.91;65.10
70089;HTU21D;57460;47.134;19.888;2023-03-01T04:10:06;5.85;65.99
70089;HTU21D;57460;47.134;19.888;2023-03-01T04:12:33;5.89;65.82
70089;HTU21D;57460;47.134;19.888;2023-03-01T04:15:03;5.87;65.53
70089;HTU21D;57460;47.134;19.888;2023-03-01T04:17:51;5.75;67.99
70089;HTU21D;57460;47.134;19.888;2023-03-01T04:20:23;5.66;68.62
70089;HTU21D;57460;47.134;19.888;2023-03-01T04:22:53;5.69;66.16
70089;HTU21D;57460;47.134;19.888;2023-03-01T04:25:23;5.62;67.58
70089;HTU21D;57460;47.134;19.888;2023-03-01T04:27:49;5.57;67.60
70089;HTU21D;57460;47.134;19.888;2023-03-01T04:30:15;5.53;66.40
70089;HTU21D;57460;47.134;19.888;2023-03-01T04:32:41;5.53;68.43
70089;HTU21D;57460;47.134;19.888;2023-03-01T04:35:08;5.48;68.04
70089;HTU21D;57460;47.134;19.888;2023-03-01T04:37:34;5.45;68.17
70089;HTU21D;57460;47.134;19.888;2023-03-01T04:40:02;5.47;68.10
70089;HTU21D;57460;47.134;19.888;2023-03-01T04:42:37;5.45;67.19
70089;HTU21D;57460;47.134;19.888;2023-03-01T04:45:04;5.36;68.26
70089;HTU21D;57460;47.134;19.888;2023-03-01T04:47:42;5.32;68.12
70089;HTU21D;57460;47.134;19.888;2023-03-01T04:50:12;5.26;68.65
70089;HTU21D;57460;47.134;19.888;2023-03-01T04:52:38;5.25;69.29
70089;HTU21D;57460;47.134;19.888;2023-03-01T04:55:04;5.23;68.85
70089;HTU21D;57460;47.134;19.888;2023-03-01T04:57:31;5.25;66.69
70089;HTU21D;57460;47.134;19.888;2023-03-01T04:59:57;5.23;68.22
70089;HTU21D;57460;47.134;19.888;2023-03-01T05:02:23;5.32;66.22
70089;HTU21D;57460;47.134;19.888;2023-03-01T05:04:49;5.21;68.21
70089;HTU21D;57460;47.134;19.888;2023-03-01T05:07:15;5.30;66.43
70089;HTU21D;57460;47.134;19.888;2023-03-01T05:09:48;5.22;68.04
70089;HTU21D;57460;47.134;19.888;2023-03-01T05:12:14;5.30;66.43
70089;HTU21D;57460;47.134;19.888;2023-03-01T05:14:41;5.26;66.41
70089;HTU21D;57460;47.134;19.888;2023-03-01T05:17:07;5.22;67.26
70089;HTU21D;57460;47.134;19.888;2023-03-01T05:19:33;5.20;66.53
70089;HTU21D;57460;47.134;19.888;2023-03-01T05:21:59;5.13;66.81
70089;HTU21D;57460;47.134;19.888;2023-03-01T05:24:34;5.11;67.33
70089;HTU21D;57460;47.134;19.888;2023-03-01T05:27:01;5.08;66.30
70089;HTU21D;57460;47.134;19.888;2023-03-01T05:29:30;5.06;66.75
70089;HTU21D;57460;47.134;19.888;2023-03-01T05:31:59;5.05;66.27
70089;HTU21D;57460;47.134;19.888;2023-03-01T05:34:29;5.01;65.98
70089;HTU21D;57460;47.134;19.888;2023-03-01T05:36:55;4.95;65.62
70089;HTU21D;57460;47.134;19.888;2023-03-01T05:39:24;4.95;65.57
70089;HTU21D;57460;47.134;19.888;2023-03-01T05:41:56;4.89;65.53
70089;HTU21D;57460;47.134;19.888;2023-03-01T05:44:23;4.93;65.60
70089;HTU21D;57460;47.134;19.888;2023-03-01T05:46:50;5.00;65.46
70089;HTU21D;57460;47.134;19.888;2023-03-01T05:49:17;4.98;65.54
70089;HTU21D;57460;47.134;19.888;2023-03-01T05:51:48;4.95;65.34
70089;HTU21D;57460;47.134;19.888;2023-03-01T05:54:14;4.93;65.40
70089;HTU21D;57460;47.134;19.888;2023-03-01T05:56:40;4.90;65.83
70089;HTU21D;57460;47.134;19.888;2023-03-01T05:59:07;5.01;65.32
70089;HTU21D;57460;47.134;19.888;2023-03-01T06:01:33;4.94;65.36
70089;HTU21D;57460;47.134;19.888;2023-03-01T06:04:00;5.01;65.17
70089;HTU21D;57460;47.134;19.888;2023-03-01T06:06:26;4.98;64.91
70089;HTU21D;57460;47.134;19.888;2023-03-01T06:08:53;5.04;64.82
70089;HTU21D;57460;47.134;19.888;2023-03-01T06:11:20;5.08;64.22
70089;HTU21D;57460;47.134;19.888;2023-03-01T06:13:46;5.12;64.74
70089;HTU21D;57460;47.134;19.888;2023-03-01T06:16:13;5.20;63.98
70089;HTU21D;57460;47.134;19.888;2023-03-01T06:18:40;5.15;64.01
70089;HTU21D;57460;47.134;19.888;2023-03-01T06:21:08;5.19;64.03
70089;HTU21D;57460;47.134;19.888;2023-03-01T06:23:34;5.18;62.72
70089;HTU21D;57460;47.134;19.888;2023-03-01T06:26:04;5.20;63.50
70089;HTU21D;57460;47.134;19.888;2023-03-01T06:28:30;5.13;62.47
70089;HTU21D;57460;47.134;19.888;2023-03-01T06:30:56;5.19;63.26
70089;HTU21D;57460;47.134;19.888;2023-03-01T06:33:22;5.15;63.23
70089;HTU21D;57460;47.134;19.888;2023-03-01T06:35:50;5.07;62.88
70089;HTU21D;57460;47.134;19.888;2023-03-01T06:38:17;5.09;62.74
70089;HTU21D;57460;47.134;19.888;2023-03-01T06:40:45;5.12;62.82
70089;HTU21D;57460;47.134;19.888;2023-03-01T06:43:16;5.13;61.95
70089;HTU21D;57460;47.134;19.888;2023-03-01T06:45:42;5.20;62.86
70089;HTU21D;57460;47.134;19.888;2023-03-01T06:48:08;5.28;63.05
70089;HTU21D;57460;47.134;19.888;2023-03-01T06:50:34;5.35;62.56
70089;HTU21D;57460;47.134;19.888;2023-03-01T06:53:00;5.37;62.03
70089;HTU21D;57460;47.134;19.888;2023-03-01T06:55:26;5.47;62.36
70089;HTU21D;57460;47.134;19.888;2023-03-01T06:57:57;5.53;62.14
70089;HTU21D;57460;47.134;19.888;2023-03-01T07:00:23;5.71;61.76
70089;HTU21D;57460;47.134;19.888;2023-03-01T07:02:52;5.72;60.80
70089;HTU21D;57460;47.134;19.888;2023-03-01T07:05:18;5.71;61.10
70089;HTU21D;57460;47.134;19.888;2023-03-01T07:07:44;5.75;60.99
70089;HTU21D;57460;47.134;19.888;2023-03-01T07:10:11;5.84;61.64
70089;HTU21D;57460;47.134;19.888;2023-03-01T07:12:37;5.83;60.26
70089;HTU21D;57460;47.134;19.888;2023-03-01T07:15:04;5.82;61.31
70089;HTU21D;57460;47.134;19.888;2023-03-01T07:17:30;5.91;61.11
70089;HTU21D;57460;47.134;19.888;2023-03-01T07:19:56;5.92;60.60
70089;HTU21D;57460;47.134;19.888;2023-03-01T07:22:22;5.91;60.43
70089;HTU21D;57460;47.134;19.888;2023-03-01T07:24:48;5.95;60.18
70089;HTU21D;57460;47.134;19.888;2023-03-01T07:27:14;6.10;61.28
70089;HTU21D;57460;47.134;19.888;2023-03-01T07:29:39;6.12;60.43
70089;HTU21D;57460;47.134;19.888;2023-03-01T07:32:06;6.17;60.73
70089;HTU21D;57460;47.134;19.888;2023-03-01T07:34:32;6.27;60.74
70089;HTU21D;57460;47.134;19.888;2023-03-01T07:36:57;6.35;60.51
70089;HTU21D;57460;47.134;19.888;2023-03-01T07:39:23;6.48;59.87
70089;HTU21D;57460;47.134;19.888;2023-03-01T07:41:50;6.48;60.09
70089;HTU21D;57460;47.134;19.888;2023-03-01T07:44:16;6.54;59.83
70089;HTU21D;57460;47.134;19.888;2023-03-01T07:46:43;6.65;60.57
70089;HTU21D;57460;47.134;19.888;2023-03-01T07:49:09;6.68;59.77
70089;HTU21D;57460;47.134;19.888;2023-03-01T07:51:35;6.65;58.93
70089;HTU21D;57460;47.134;19.888;2023-03-01T07:54:01;6.61;59.28
70089;HTU21D;57460;47.134;19.888;2023-03-01T07:56:27;6.58;57.90
70089;HTU21D;57460;47.134;19.888;2023-03-01T07:58:53;6.61;59.51
70089;HTU21D;57460;47.134;19.888;2023-03-01T08:01:21;6.65;59.38
70089;HTU21D;57460;47.134;19.888;2023-03-01T08:03:47;6.79;58.66
70089;HTU21D;57460;47.134;19.888;2023-03-01T08:06:15;6.84;58.33
70089;HTU21D;57460;47.134;19.888;2023-03-01T08:08:42;6.96;58.67
70089;HTU21D;57460;47.134;19.888;2023-03-01T08:11:11;7.11;59.23
70089;HTU21D;57460;47.134;19.888;2023-03-01T08:13:37;7.22;58.11
70089;HTU21D;57460;47.134;19.888;2023-03-01T08:16:07;7.28;58.43
70089;HTU21D;57460;47.134;19.888;2023-03-01T08:18:33;7.29;57.14
70089;HTU21D;57460;47.134;19.888;2023-03-01T08:21:07;7.37;57.69
70089;HTU21D;57460;47.134;19.888;2023-03-01T08:23:33;7.53;58.03
70089;HTU21D;57460;47.134;19.888;2023-03-01T08:26:08;7.73;56.99
70089;HTU21D;57460;47.134;19.888;2023-03-01T08:28:34;7.93;57.46
70089;HTU21D;57460;47.134;19.888;2023-03-01T08:31:00;8.02;55.52
70089;HTU21D;57460;47.134;19.888;2023-03-01T08:33:26;8.15;56.83
70089;HTU21D;57460;47.134;19.888;2023-03-01T08:35:52;8.27;55.89
70089;HTU21D;57460;47.134;19.888;2023-03-01T08:38:18;8.39;53.64
70089;HTU21D;57460;47.134;19.888;2023-03-01T08:40:43;8.42;54.91
70089;HTU21D;57460;47.134;19.888;2023-03-01T08:43:09;8.50;55.60
70089;HTU21D;57460;47.134;19.888;2023-03-01T08:45:35;8.51;55.46
70089;HTU21D;57460;47.134;19.888;2023-03-01T08:48:01;8.51;52.43
70089;HTU21D;57460;47.134;19.888;2023-03-01T08:50:27;8.61;54.91
70089;HTU21D;57460;47.134;19.888;2023-03-01T08:52:53;8.63;52.75
70089;HTU21D;57460;47.134;19.888;2023-03-01T08:55:18;8.66;53.41
70089;HTU21D;57460;47.134;19.888;2023-03-01T08:57:44;8.63;53.00
70089;HTU21D;57460;47.134;19.888;2023-03-01T09:00:10;8.66;54.07
70089;HTU21D;57460;47.134;19.888;2023-03-01T09:02:37;8.68;55.56
70089;HTU21D;57460;47.134;19.888;2023-03-01T09:05:04;8.76;53.54
70089;HTU21D;57460;47.134;19.888;2023-03-01T09:07:30;8.83;54.60
70089;HTU21D;57460;47.134;19.888;2023-03-01T09:09:56;8.88;54.81
70089;HTU21D;57460;47.134;19.888;2023-03-01T09:12:23;8.86;51.82
70089;HTU21D;57460;47.134;19.888;2023-03-01T09:14:50;8.87;52.09
70089;HTU21D;57460;47.134;19.888;2023-03-01T09:17:16;8.93;54.39
70089;HTU21D;57460;47.134;19.888;2023-03-01T09:19:42;9.01;53.87
70089;HTU21D;57460;47.134;19.888;2023-03-01T09:22:08;9.08;54.09
70089;HTU21D;57460;47.134;19.888;2023-03-01T09:24:33;9.22;54.64
70089;HTU21D;57460;47.134;19.888;2023-03-01T09:26:59;9.33;51.52
70089;HTU21D;57460;47.134;19.888;2023-03-01T09:29:26;9.53;53.46
70089;HTU21D;57460;47.134;19.888;2023-03-01T09:31:52;9.48;52.50
70089;HTU21D;57460;47.134;19.888;2023-03-01T09:34:21;9.55;51.03
70089;HTU21D;57460;47.134;19.888;2023-03-01T09:36:49;9.62;51.65
70089;HTU21D;57460;47.134;19.888;2023-03-01T09:39:16;9.76;51.56
70089;HTU21D;57460;47.134;19.888;2023-03-01T09:41:50;9.98;52.32
70089;HTU21D;57460;47.134;19.888;2023-03-01T09:46:59;10.60;51.57
70089;HTU21D;57460;47.134;19.888;2023-03-01T09:49:31;10.68;49.05
70089;HTU21D;57460;47.134;19.888;2023-03-01T09:52:36;10.84;48.26
70089;HTU21D;57460;47.134;19.888;2023-03-01T09:55:13;10.83;48.18
70089;HTU21D;57460;47.134;19.888;2023-03-01T09:57:55;10.83;49.63
70089;HTU21D;57460;47.134;19.888;2023-03-01T10:00:51;10.87;48.85
70089;HTU21D;57460;47.134;19.888;2023-03-01T10:03:42;10.98;50.66
70089;HTU21D;57460;47.134;19.888;2023-03-01T10:06:15;10.92;47.80
70089;HTU21D;57460;47.134;19.888;2023-03-01T10:11:23;11.08;48.23
70089;HTU21D;57460;47.134;19.888;2023-03-01T10:14:15;11.32;50.08
70089;HTU21D;57460;47.134;19.888;2023-03-01T10:16:52;11.51;47.36
70089;HTU21D;57460;47.134;19.888;2023-03-01T10:19:43;11.55;48.50
70089;HTU21D;57460;47.134;19.888;2023-03-01T10:22:30;11.67;48.80
70089;HTU21D;57460;47.134;19.888;2023-03-01T10:25:02;11.84;48.43
70089;HTU21D;57460;47.134;19.888;2023-03-01T10:32:39;11.92;46.83
70089;HTU21D;57460;47.134;19.888;2023-03-01T10:35:27;12.02;48.05
70089;HTU21D;57460;47.134;19.888;2023-03-01T10:38:03;12.03;48.72
70089;HTU21D;57460;47.134;19.888;2023-03-01T10:40:30;12.06;48.66
70089;HTU21D;57460;47.134;19.888;2023-03-01T10:43:04;12.22;47.91
70089;HTU21D;57460;47.134;19.888;2023-03-01T10:45:38;12.42;45.69
70089;HTU21D;57460;47.134;19.888;2023-03-01T10:48:22;12.43;47.50
70089;HTU21D;57460;47.134;19.888;2023-03-01T10:51:06;12.47;47.73
70089;HTU21D;57460;47.134;19.888;2023-03-01T10:53:40;12.64;47.31
70089;HTU21D;57460;47.134;19.888;2023-03-01T10:56:10;12.76;47.12
70089;HTU21D;57460;47.134;19.888;2023-03-01T10:58:41;12.90;47.75
70089;HTU21D;57460;47.134;19.888;2023-03-01T11:06:29;13.21;45.97
70089;HTU21D;57460;47.134;19.888;2023-03-01T11:08:55;13.26;45.99
70089;HTU21D;57460;47.134;19.888;2023-03-01T11:11:34;13.51;46.79
70089;HTU21D;57460;47.134;19.888;2023-03-01T11:14:13;13.74;45.98
70089;HTU21D;57460;47.134;19.888;2023-03-01T11:16:43;13.88;45.73
70089;HTU21D;57460;47.134;19.888;2023-03-01T11:24:19;14.37;45.92
70089;HTU21D;57460;47.134;19.888;2023-03-01T11:26:53;14.54;45.44
70089;HTU21D;57460;47.134;19.888;2023-03-01T11:32:02;14.60;44.53
70089;HTU21D;57460;47.134;19.888;2023-03-01T11:37:16;14.48;44.42
70089;HTU21D;57460;47.134;19.888;2023-03-01T11:39:59;14.30;41.81
70089;HTU21D;57460;47.134;19.888;2023-03-01T11:45:26;14.38;45.70
70089;HTU21D;57460;47.134;19.888;2023-03-01T11:50:48;14.42;45.43
70089;HTU21D;57460;47.134;19.888;2023-03-01T11:53:31;14.51;45.64
70089;HTU21D;57460;47.134;19.888;2023-03-01T12:08:20;14.48;43.97
70089;HTU21D;57460;47.134;19.888;2023-03-01T12:11:26;14.47;45.94
70089;HTU21D;57460;47.134;19.888;2023-03-01T12:14:21;14.60;44.62
70089;HTU21D;57460;47.134;19.888;2023-03-01T12:17:14;14.65;43.07
70089;HTU21D;57460;47.134;19.888;2023-03-01T12:25:53;14.62;42.97
70089;HTU21D;57460;47.134;19.888;2023-03-01T12:28:42;14.45;44.68
70089;HTU21D;57460;47.134;19.888;2023-03-01T12:37:22;14.63;43.86
70089;HTU21D;57460;47.134;19.888;2023-03-01T12:43:02;14.54;44.21
70089;HTU21D;57460;47.134;19.888;2023-03-01T12:51:14;14.32;43.09
70089;HTU21D;57460;47.134;19.888;2023-03-01T12:53:46;14.28;44.64
70089;HTU21D;57460;47.134;19.888;2023-03-01T12:56:27;14.25;44.62
70089;HTU21D;57460;47.134;19.888;2023-03-01T12:59:29;14.27;44.80
70089;HTU21D;57460;47.134;19.888;2023-03-01T13:05:24;14.47;45.15
70089;HTU21D;57460;47.134;19.888;2023-03-01T13:07:57;14.55;45.24
70089;HTU21D;57460;47.134;19.888;2023-03-01T13:10:47;14.71;44.36
70089;HTU21D;57460;47.134;19.888;2023-03-01T13:15:45;14.89;44.78
70089;HTU21D;57460;47.134;19.888;2023-03-01T13:31:06;14.85;44.13
70089;HTU21D;57460;47.134;19.888;2023-03-01T13:36:02;14.80;44.41
70089;HTU21D;57460;47.134;19.888;2023-03-01T13:41:24;14.82;45.13
70089;HTU21D;57460;47.134;19.888;2023-03-01T13:46:47;14.84;45.21
70089;HTU21D;57460;47.134;19.888;2023-03-01T13:49:19;14.78;45.08
70089;HTU21D;57460;47.134;19.888;2023-03-01T13:51:49;14.88;45.07
70089;HTU21D;57460;47.134;19.888;2023-03-01T13:54:29;14.75;44.38
70089;HTU21D;57460;47.134;19.888;2023-03-01T13:56:59;14.72;43.55
70089;HTU21D;57460;47.134;19.888;2023-03-01T13:59:26;14.64;44.65
70089;HTU21D;57460;47.134;19.888;2023-03-01T14:01:58;14.54;43.88
70089;HTU21D;57460;47.134;19.888;2023-03-01T14:04:32;14.49;44.03
70089;HTU21D;57460;47.134;19.888;2023-03-01T14:07:22;14.48;45.06
70089;HTU21D;57460;47.134;19.888;2023-03-01T14:10:03;14.53;43.81
70089;HTU21D;57460;47.134;19.888;2023-03-01T14:18:25;14.45;44.89
70089;HTU21D;57460;47.134;19.888;2023-03-01T14:20:53;14.47;44.53
70089;HTU21D;57460;47.134;19.888;2023-03-01T14:23:23;14.49;45.28
70089;HTU21D;57460;47.134;19.888;2023-03-01T14:25:55;14.51;45.06
70089;HTU21D;57460;47.134;19.888;2023-03-01T14:28:29;14.57;43.59
70089;HTU21D;57460;47.134;19.888;2023-03-01T14:31:00;14.52;45.02
70089;HTU21D;57460;47.134;19.888;2023-03-01T14:36:01;14.37;44.36
70089;HTU21D;57460;47.134;19.888;2023-03-01T14:38:39;14.22;44.19
70089;HTU21D;57460;47.134;19.888;2023-03-01T14:43:44;14.05;44.42
70089;HTU21D;57460;47.134;19.888;2023-03-01T14:46:22;14.00;45.16
70089;HTU21D;57460;47.134;19.888;2023-03-01T14:48:51;13.89;45.28
70089;HTU21D;57460;47.134;19.888;2023-03-01T14:51:18;13.91;44.99
70089;HTU21D;57460;47.134;19.888;2023-03-01T14:53:43;13.86;45.03
70089;HTU21D;57460;47.134;19.888;2023-03-01T14:56:15;13.83;45.11
70089;HTU21D;57460;47.134;19.888;2023-03-01T14:58:52;13.73;45.45
70089;HTU21D;57460;47.134;19.888;2023-03-01T15:01:19;13.62;46.21
70089;HTU21D;57460;47.134;19.888;2023-03-01T15:03:48;13.63;46.60
70089;HTU21D;57460;47.134;19.888;2023-03-01T15:06:17;13.58;46.38
70089;HTU21D;57460;47.134;19.888;2023-03-01T15:08:50;13.47;45.72
70089;HTU21D;57460;47.134;19.888;2023-03-01T15:13:48;13.34;46.13
70089;HTU21D;57460;47.134;19.888;2023-03-01T15:16:27;13.31;46.20
70089;HTU21D;57460;47.134;19.888;2023-03-01T15:19:00;13.24;46.28
70089;HTU21D;57460;47.134;19.888;2023-03-01T15:21:34;13.18;46.97
70089;HTU21D;57460;47.134;19.888;2023-03-01T15:24:15;13.08;46.82
70089;HTU21D;57460;47.134;19.888;2023-03-01T15:26:59;13.10;47.02
70089;HTU21D;57460;47.134;19.888;2023-03-01T15:29:34;13.03;47.05
70089;HTU21D;57460;47.134;19.888;2023-03-01T15:32:30;12.96;47.54
70089;HTU21D;57460;47.134;19.888;2023-03-01T15:34:58;12.94;47.59
70089;HTU21D;57460;47.134;19.888;2023-03-01T15:37:53;12.91;47.64
70089;HTU21D;57460;47.134;19.888;2023-03-01T15:40:26;12.88;47.79
70089;HTU21D;57460;47.134;19.888;2023-03-01T15:43:02;12.78;48.02
70089;HTU21D;57460;47.134;19.888;2023-03-01T15:45:30;12.77;47.97
70089;HTU21D;57460;47.134;19.888;2023-03-01T15:48:19;12.71;48.13
70089;HTU21D;57460;47.134;19.888;2023-03-01T15:50:59;12.69;48.12
70089;HTU21D;57460;47.134;19.888;2023-03-01T15:53:34;12.60;48.28
70089;HTU21D;57460;47.134;19.888;2023-03-01T15:56:00;12.55;48.60
70089;HTU21D;57460;47.134;19.888;2023-03-01T15:58:26;12.47;48.70
70089;HTU21D;57460;47.134;19.888;2023-03-01T16:00:52;12.43;48.60
70089;HTU21D;57460;47.134;19.888;2023-03-01T16:03:22;12.35;48.84
70089;HTU21D;57460;47.134;19.888;2023-03-01T16:05:49;12.29;48.91
70089;HTU21D;57460;47.134;19.888;2023-03-01T16:08:17;12.21;49.15
70089;HTU21D;57460;47.134;19.888;2023-03-01T16:10:43;12.15;49.32
70089;HTU21D;57460;47.134;19.888;2023-03-01T16:13:13;12.07;49.46
70089;HTU21D;57460;47.134;19.888;2023-03-01T16:15:40;11.98;49.76
70089;HTU21D;57460;47.134;19.888;2023-03-01T16:18:06;11.85;49.79
70089;HTU21D;57460;47.134;19.888;2023-03-01T16:20:36;11.76;50.08
70089;HTU21D;57460;47.134;19.888;2023-03-01T16:23:05;11.69;50.18
70089;HTU21D;57460;47.134;19.888;2023-03-01T16:25:32;11.59;50.34
70089;HTU21D;57460;47.134;19.888;2023-03-01T16:27:58;11.48;50.61
70089;HTU21D;57460;47.134;19.888;2023-03-01T16:30:26;11.39;50.74
70089;HTU21D;57460;47.134;19.888;2023-03-01T16:32:53;11.29;50.84
70089;HTU21D;57460;47.134;19.888;2023-03-01T16:35:20;11.17;51.37
70089;HTU21D;57460;47.134;19.888;2023-03-01T16:37:47;11.03;51.21
70089;HTU21D;57460;47.134;19.888;2023-03-01T16:40:22;10.92;51.47
70089;HTU21D;57460;47.134;19.888;2023-03-01T16:42:51;10.82;51.59
70089;HTU21D;57460;47.134;19.888;2023-03-01T16:45:18;10.73;51.76
70089;HTU21D;57460;47.134;19.888;2023-03-01T16:47:44;10.66;51.77
70089;HTU21D;57460;47.134;19.888;2023-03-01T16:50:10;10.56;52.09
70089;HTU21D;57460;47.134;19.888;2023-03-01T16:52:36;10.48;52.17
70089;HTU21D;57460;47.134;19.888;2023-03-01T16:55:05;10.40;52.16
70089;HTU21D;57460;47.134;19.888;2023-03-01T16:57:36;10.31;52.33
70089;HTU21D;57460;47.134;19.888;2023-03-01T17:00:07;10.24;52.46
70089;HTU21D;57460;47.134;19.888;2023-03-01T17:02:35;10.14;53.31
70089;HTU21D;57460;47.134;19.888;2023-03-01T17:05:01;10.04;52.81
70089;HTU21D;57460;47.134;19.888;2023-03-01T17:07:31;9.95;52.88
70089;HTU21D;57460;47.134;19.888;2023-03-01T17:10:01;9.90;52.94
70089;HTU21D;57460;47.134;19.888;2023-03-01T17:12:27;9.79;54.02
70089;HTU21D;57460;47.134;19.888;2023-03-01T17:14:53;9.68;54.14
70089;HTU21D;57460;47.134;19.888;2023-03-01T17:17:19;9.61;53.57
70089;HTU21D;57460;47.134;19.888;2023-03-01T17:19:45;9.55;53.86
70089;HTU21D;57460;47.134;19.888;2023-03-01T17:22:11;9.44;54.03
70089;HTU21D;57460;47.134;19.888;2023-03-01T17:24:43;9.31;53.47
70089;HTU21D;57460;47.134;19.888;2023-03-01T17:27:10;9.21;53.41
70089;HTU21D;57460;47.134;19.888;2023-03-01T17:29:37;9.04;53.56
70089;HTU21D;57460;47.134;19.888;2023-03-01T17:32:04;8.86;54.11